Time;durP1;ratioP1;P1;durP2;ratioP2;P2;SDS_P1;SDS_P2;PMS_P1;PMS_P2;Temp;Humidity;BMP_temperature;BMP_pressure;BME280_temperature;BME280_humidity;BME280_pressure;Samples;Min_cycle;Max_cycle;Signal;HPM_P1;HPM_P2
2023/04/08 00:04:42;;;;;;;;;;;18.40;46.60;;;;;;10332394;28;1983;-78
2023/04/08 00:09:38;;;;;;;;;;;18.30;46.60;;;;;;10332354;28;867;-78
2023/04/08 00:14:33;;;;;;;;;;;18.30;46.60;;;;;;10314819;28;794;-78
2023/04/08 00:19:29;;;;;;;;;;;18.40;46.60;;;;;;10332036;28;856;-78
2023/04/08 00:24:24;;;;;;;;;;;18.30;46.60;;;;;;10331763;28;1965;-78
2023/04/08 00:29:19;;;;;;;;;;;18.30;46.60;;;;;;10332165;28;757;-78
2023/04/08 00:34:15;;;;;;;;;;;18.30;46.60;;;;;;10332799;28;919;-78
2023/04/08 00:39:10;;;;;;;;;;;18.30;46.60;;;;;;10331221;28;769;-78
2023/04/08 00:44:06;;;;;;;;;;;18.30;46.60;;;;;;10329559;28;1906;-78
2023/04/08 00:49:01;;;;;;;;;;;18.30;46.60;;;;;;10330843;28;825;-78
2023/04/08 00:53:57;;;;;;;;;;;18.30;46.60;;;;;;10331204;28;1097;-78
2023/04/08 00:58:54;;;;;;;;;;;18.30;46.60;;;;;;10330497;28;890;-78
2023/04/08 01:03:49;;;;;;;;;;;18.30;46.60;;;;;;10330240;28;1910;-78
2023/04/08 01:08:44;;;;;;;;;;;18.30;46.60;;;;;;10330773;28;775;-78
2023/04/08 01:13:40;;;;;;;;;;;18.30;46.60;;;;;;10329939;28;758;-78
2023/04/08 01:18:35;;;;;;;;;;;18.30;46.60;;;;;;10330318;28;889;-78
2023/04/08 01:23:31;;;;;;;;;;;18.30;46.60;;;;;;10329462;28;1902;-78
2023/04/08 01:28:26;;;;;;;;;;;18.30;46.50;;;;;;10311520;28;953;-78
2023/04/08 01:33:21;;;;;;;;;;;18.30;46.50;;;;;;10330328;28;917;-78
2023/04/08 01:38:17;;;;;;;;;;;18.30;46.60;;;;;;10328954;28;795;-78
2023/04/08 01:43:12;;;;;;;;;;;18.30;46.50;;;;;;10328876;28;1973;-78
2023/04/08 01:48:08;;;;;;;;;;;18.30;46.50;;;;;;10327948;28;904;-78
2023/04/08 01:53:03;;;;;;;;;;;18.30;46.50;;;;;;10329053;28;854;-78
2023/04/08 01:57:59;;;;;;;;;;;18.30;46.50;;;;;;10327430;28;1292;-78
2023/04/08 02:02:54;;;;;;;;;;;18.20;46.50;;;;;;10310457;28;2082;-78
2023/04/08 02:07:50;;;;;;;;;;;18.30;46.50;;;;;;10327108;28;901;-78
2023/04/08 02:12:46;;;;;;;;;;;18.30;46.50;;;;;;10327565;28;782;-78
2023/04/08 02:17:41;;;;;;;;;;;18.20;46.50;;;;;;10327969;28;907;-78
2023/04/08 02:22:37;;;;;;;;;;;18.20;46.50;;;;;;10327201;28;1976;-78
2023/04/08 02:27:32;;;;;;;;;;;18.20;46.50;;;;;;10326906;28;922;-79
2023/04/08 02:32:27;;;;;;;;;;;18.20;46.50;;;;;;10310090;28;1922;-78
2023/04/08 02:37:23;;;;;;;;;;;18.20;46.40;;;;;;10326609;28;754;-78
2023/04/08 02:42:18;;;;;;;;;;;18.20;47.00;;;;;;10326390;28;1969;-78
2023/04/08 02:47:14;;;;;;;;;;;18.20;46.40;;;;;;10326433;28;933;-78
2023/04/08 02:52:09;;;;;;;;;;;18.20;46.40;;;;;;10326089;28;1079;-78
2023/04/08 02:57:04;;;;;;;;;;;18.20;46.30;;;;;;10328593;28;1254;-78
2023/04/08 03:02:00;;;;;;;;;;;18.20;46.30;;;;;;10325400;28;1917;-78
2023/04/08 03:06:55;;;;;;;;;;;18.20;46.40;;;;;;10324471;28;738;-78
2023/04/08 03:11:53;;;;;;;;;;;18.20;46.40;;;;;;10325650;28;774;-78
2023/04/08 03:16:48;;;;;;;;;;;18.20;46.40;;;;;;10325561;28;825;-78
2023/04/08 03:21:44;;;;;;;;;;;18.20;46.30;;;;;;10325410;28;1965;-78
2023/04/08 03:26:39;;;;;;;;;;;18.20;46.30;;;;;;10324849;28;1030;-78
2023/04/08 03:31:35;;;;;;;;;;;18.20;46.30;;;;;;10325201;28;801;-78
2023/04/08 03:36:31;;;;;;;;;;;18.20;46.40;;;;;;10325945;28;968;-78
2023/04/08 03:41:26;;;;;;;;;;;18.20;46.30;;;;;;10325011;28;1963;-78
2023/04/08 03:46:21;;;;;;;;;;;18.20;46.30;;;;;;10325589;28;798;-78
2023/04/08 03:51:17;;;;;;;;;;;18.20;46.40;;;;;;10325444;28;865;-78
2023/04/08 03:56:12;;;;;;;;;;;18.20;46.20;;;;;;10325555;28;1171;-78
2023/04/08 04:01:07;;;;;;;;;;;18.20;46.30;;;;;;10325318;28;861;-78
2023/04/08 04:06:03;;;;;;;;;;;18.20;46.30;;;;;;10324691;28;1902;-78
2023/04/08 04:10:58;;;;;;;;;;;18.10;46.30;;;;;;10324133;28;955;-78
2023/04/08 04:15:54;;;;;;;;;;;18.10;46.30;;;;;;10325052;28;746;-78
2023/04/08 04:20:49;;;;;;;;;;;18.20;46.30;;;;;;10329932;28;864;-78
2023/04/08 04:25:44;;;;;;;;;;;18.20;46.30;;;;;;10331711;28;1953;-78
2023/04/08 04:30:40;;;;;;;;;;;18.20;46.20;;;;;;10331557;28;782;-78
2023/04/08 04:35:35;;;;;;;;;;;18.20;46.20;;;;;;10331369;28;900;-78
2023/04/08 04:40:31;;;;;;;;;;;18.30;46.10;;;;;;10331825;28;960;-78
2023/04/08 04:45:26;;;;;;;;;;;18.20;46.10;;;;;;10331677;28;1949;-78
2023/04/08 04:50:21;;;;;;;;;;;18.30;46.10;;;;;;10312847;28;958;-78
2023/04/08 04:55:17;;;;;;;;;;;18.30;46.20;;;;;;10330849;28;1120;-78
2023/04/08 05:00:12;;;;;;;;;;;18.30;46.00;;;;;;10330425;28;805;-78
2023/04/08 05:05:07;;;;;;;;;;;18.20;46.10;;;;;;10330255;28;1898;-78
2023/04/08 05:10:03;;;;;;;;;;;18.30;46.10;;;;;;10330141;28;959;-78
2023/04/08 05:14:58;;;;;;;;;;;18.30;46.10;;;;;;10329989;28;920;-78
2023/04/08 05:19:54;;;;;;;;;;;18.30;46.00;;;;;;10329755;28;883;-78
2023/04/08 05:24:49;;;;;;;;;;;18.30;46.10;;;;;;10329474;28;1902;-78
2023/04/08 05:29:45;;;;;;;;;;;18.30;46.00;;;;;;10329283;28;766;-78
2023/04/08 05:34:40;;;;;;;;;;;18.30;46.00;;;;;;10328592;28;838;-78
2023/04/08 05:39:35;;;;;;;;;;;18.30;46.10;;;;;;10328937;28;864;-78
2023/04/08 05:44:31;;;;;;;;;;;18.30;46.00;;;;;;10329275;28;1955;-78
2023/04/08 05:49:26;;;;;;;;;;;18.30;46.00;;;;;;10327961;28;1000;-81
2023/04/08 05:54:22;;;;;;;;;;;18.40;46.00;;;;;;10328050;28;1231;-82
2023/04/08 05:59:17;;;;;;;;;;;18.30;46.00;;;;;;10328290;28;735;-81
2023/04/08 06:04:12;;;;;;;;;;;18.30;46.00;;;;;;10328296;28;1914;-81
2023/04/08 06:09:09;;;;;;;;;;;18.30;46.00;;;;;;10327759;28;765;-81
2023/04/08 06:14:04;;;;;;;;;;;18.30;46.00;;;;;;10328100;28;949;-81
2023/04/08 06:18:59;;;;;;;;;;;18.30;46.00;;;;;;10328433;28;838;-81
2023/04/08 06:23:55;;;;;;;;;;;18.40;46.00;;;;;;10327533;28;1906;-80
2023/04/08 06:28:51;;;;;;;;;;;18.30;46.00;;;;;;10326959;28;971;-81
2023/04/08 06:33:46;;;;;;;;;;;18.30;46.00;;;;;;10326780;28;781;-81
2023/04/08 06:38:41;;;;;;;;;;;18.30;45.90;;;;;;10308674;28;833;-82
2023/04/08 06:43:37;;;;;;;;;;;18.30;45.90;;;;;;10326335;28;1901;-81
2023/04/08 06:48:32;;;;;;;;;;;18.30;46.00;;;;;;10326474;28;940;-80
2023/04/08 06:53:32;;;;;;;;;;;18.30;45.90;;;;;;10326177;28;829;-81
2023/04/08 06:58:28;;;;;;;;;;;18.40;45.90;;;;;;10327027;28;1332;-82
2023/04/08 07:03:24;;;;;;;;;;;18.30;45.80;;;;;;10326409;28;1906;-82
2023/04/08 07:08:19;;;;;;;;;;;18.30;45.90;;;;;;10325776;28;853;-82
2023/04/08 07:13:15;;;;;;;;;;;18.30;45.90;;;;;;10325094;28;924;-82
2023/04/08 07:18:11;;;;;;;;;;;18.30;46.00;;;;;;10325600;28;757;-81
2023/04/08 07:23:06;;;;;;;;;;;18.30;46.00;;;;;;10326000;28;1969;-82
2023/04/08 07:28:01;;;;;;;;;;;18.30;45.90;;;;;;10325322;28;1121;-82
2023/04/08 07:32:57;;;;;;;;;;;18.30;46.00;;;;;;10325451;28;895;-82
2023/04/08 07:37:53;;;;;;;;;;;18.30;45.90;;;;;;10325171;28;774;-81
2023/04/08 07:42:49;;;;;;;;;;;18.30;45.90;;;;;;10324991;28;1905;-82
2023/04/08 07:47:44;;;;;;;;;;;18.30;45.90;;;;;;10324992;28;935;-81
2023/04/08 07:52:40;;;;;;;;;;;18.30;46.00;;;;;;10325654;28;891;-83
2023/04/08 07:57:35;;;;;;;;;;;18.20;46.00;;;;;;10332717;28;1376;-82
2023/04/08 08:02:31;;;;;;;;;;;18.20;46.10;;;;;;10333215;28;1973;-82
2023/04/08 08:07:26;;;;;;;;;;;18.30;46.00;;;;;;10332521;28;821;-81
2023/04/08 08:12:21;;;;;;;;;;;18.20;46.00;;;;;;10332234;28;772;-82
2023/04/08 08:17:17;;;;;;;;;;;18.30;46.00;;;;;;10332726;28;903;-81
2023/04/08 08:22:12;;;;;;;;;;;18.30;45.90;;;;;;10331922;28;1960;-82
2023/04/08 08:27:08;;;;;;;;;;;18.30;46.00;;;;;;10331923;28;928;-81
2023/04/08 08:32:03;;;;;;;;;;;18.30;46.00;;;;;;10330950;28;1166;-82
2023/04/08 08:36:59;;;;;;;;;;;18.20;46.00;;;;;;10331378;28;772;-77
2023/04/08 08:41:55;;;;;;;;;;;18.20;46.00;;;;;;10331957;28;1965;-70
2023/04/08 08:46:51;;;;;;;;;;;18.30;46.10;;;;;;10331935;28;888;-69
2023/04/08 08:51:46;;;;;;;;;;;18.20;46.10;;;;;;10332023;28;786;-71
2023/04/08 08:56:42;;;;;;;;;;;18.20;46.00;;;;;;10331079;28;1076;-73
2023/04/08 09:01:37;;;;;;;;;;;18.20;45.80;;;;;;10330378;28;1969;-78
2023/04/08 09:06:32;;;;;;;;;;;18.20;45.80;;;;;;10329153;28;841;-76
2023/04/08 09:11:28;;;;;;;;;;;18.10;45.70;;;;;;10330166;28;848;-71
2023/04/08 09:16:23;;;;;;;;;;;18.10;45.60;;;;;;10329948;28;775;-71
2023/04/08 09:21:19;;;;;;;;;;;18.20;45.40;;;;;;10330381;28;889;-72
2023/04/08 09:26:14;;;;;;;;;;;18.20;45.50;;;;;;10329634;28;1976;-73
2023/04/08 09:31:10;;;;;;;;;;;18.30;45.60;;;;;;10329991;28;749;-73
2023/04/08 09:36:05;;;;;;;;;;;18.30;45.50;;;;;;10329147;28;948;-73
2023/04/08 09:41:01;;;;;;;;;;;18.30;45.60;;;;;;10329423;28;848;-78
2023/04/08 09:45:56;;;;;;;;;;;18.30;45.70;;;;;;10329162;28;1905;-72
2023/04/08 09:50:51;;;;;;;;;;;18.30;45.80;;;;;;10328535;28;985;-72
2023/04/08 09:55:47;;;;;;;;;;;18.30;45.90;;;;;;10328845;28;1744;-72
2023/04/08 10:00:42;;;;;;;;;;;18.30;45.80;;;;;;10328185;28;967;-72
2023/04/08 10:05:38;;;;;;;;;;;18.40;46.00;;;;;;10327827;28;1922;-72
2023/04/08 10:10:34;;;;;;;;;;;18.30;46.10;;;;;;10328289;28;887;-72
2023/04/08 10:15:29;;;;;;;;;;;18.40;46.20;;;;;;10326751;28;1213;-73
2023/04/08 10:20:24;;;;;;;;;;;18.30;46.20;;;;;;10327228;28;898;-76
2023/04/08 10:25:20;;;;;;;;;;;18.20;46.20;;;;;;10327266;28;1898;-76
2023/04/08 10:30:15;;;;;;;;;;;18.20;46.20;;;;;;10327010;28;761;-76
2023/04/08 10:35:11;;;;;;;;;;;18.30;46.00;;;;;;10327507;28;814;-76
2023/04/08 10:40:06;;;;;;;;;;;18.30;46.10;;;;;;10327296;28;885;-76
2023/04/08 10:45:02;;;;;;;;;;;18.20;46.00;;;;;;10326949;28;1901;-76
2023/04/08 10:49:57;;;;;;;;;;;18.20;45.90;;;;;;10326282;28;798;-74
2023/04/08 10:54:53;;;;;;;;;;;18.30;45.90;;;;;;10326385;28;1119;-80
2023/04/08 10:59:48;;;;;;;;;;;18.30;45.80;;;;;;10326237;28;762;-80
2023/04/08 11:04:46;;;;;;;;;;;18.20;46.00;;;;;;10325630;28;1968;-82
2023/04/08 11:09:42;;;;;;;;;;;18.30;45.90;;;;;;10325727;28;843;-82
2023/04/08 11:14:38;;;;;;;;;;;18.20;45.90;;;;;;10325859;28;861;-82
2023/04/08 11:19:33;;;;;;;;;;;18.20;46.10;;;;;;10326122;28;913;-82
2023/04/08 11:24:28;;;;;;;;;;;18.30;46.00;;;;;;10324782;28;1902;-83
2023/04/08 11:29:24;;;;;;;;;;;18.20;46.00;;;;;;10325600;28;838;-82
2023/04/08 11:34:19;;;;;;;;;;;18.30;46.00;;;;;;10325944;28;864;-82
2023/04/08 11:39:14;;;;;;;;;;;18.30;46.00;;;;;;10325216;28;829;-82
2023/04/08 11:44:10;;;;;;;;;;;18.20;46.10;;;;;;10325381;28;1894;-81
2023/04/08 11:49:06;;;;;;;;;;;18.30;46.10;;;;;;10325625;28;861;-81
2023/04/08 11:54:01;;;;;;;;;;;18.30;46.00;;;;;;10325517;28;805;-82
2023/04/08 11:58:57;;;;;;;;;;;18.30;46.10;;;;;;10324873;28;1274;-81
2023/04/08 12:03:52;;;;;;;;;;;18.20;46.00;;;;;;10325416;28;1914;-85
2023/04/08 12:08:47;;;;;;;;;;;18.30;46.00;;;;;;10324454;28;821;-83
2023/04/08 12:13:43;;;;;;;;;;;18.30;46.00;;;;;;10323721;28;881;-81
2023/04/08 12:18:38;;;;;;;;;;;18.20;46.00;;;;;;10324821;28;823;-82
2023/04/08 12:23:33;;;;;;;;;;;18.30;46.00;;;;;;10324638;28;1906;-81
2023/04/08 12:28:29;;;;;;;;;;;18.30;46.10;;;;;;10324053;28;798;-81
2023/04/08 12:33:24;;;;;;;;;;;18.20;46.00;;;;;;10323903;28;754;-82
2023/04/08 12:38:20;;;;;;;;;;;18.20;46.00;;;;;;10324398;28;834;-81
2023/04/08 12:43:15;;;;;;;;;;;18.30;46.00;;;;;;10330604;28;1965;-81
2023/04/08 12:48:10;;;;;;;;;;;18.30;46.00;;;;;;10331009;28;886;-80
2023/04/08 12:53:06;;;;;;;;;;;18.20;46.10;;;;;;10330606;28;961;-81
2023/04/08 12:58:01;;;;;;;;;;;18.20;46.10;;;;;;10330748;28;1104;-71
2023/04/08 13:02:57;;;;;;;;;;;18.30;46.00;;;;;;10330814;28;1975;-72
2023/04/08 13:07:52;;;;;;;;;;;18.40;46.30;;;;;;10330936;28;971;-71
2023/04/08 13:12:47;;;;;;;;;;;18.40;46.70;;;;;;10329337;28;874;-71
2023/04/08 13:17:44;;;;;;;;;;;18.40;46.70;;;;;;10329175;28;936;-72
2023/04/08 13:22:40;;;;;;;;;;;18.40;46.90;;;;;;10330084;28;1905;-71
2023/04/08 13:27:35;;;;;;;;;;;18.50;46.90;;;;;;10329510;28;781;-72
2023/04/08 13:32:31;;;;;;;;;;;18.50;46.90;;;;;;10329257;28;758;-69
2023/04/08 13:37:27;;;;;;;;;;;18.50;47.00;;;;;;10329028;28;826;-71
2023/04/08 13:42:22;;;;;;;;;;;18.50;47.10;;;;;;10328838;28;1959;-73
2023/04/08 13:47:18;;;;;;;;;;;18.50;47.10;;;;;;10329124;28;770;-81
2023/04/08 13:52:13;;;;;;;;;;;18.50;47.10;;;;;;10327910;28;874;-80
2023/04/08 13:57:08;;;;;;;;;;;18.50;47.20;;;;;;10328655;28;1326;-70
2023/04/08 14:02:04;;;;;;;;;;;18.50;47.20;;;;;;10329465;28;1918;-71
2023/04/08 14:07:00;;;;;;;;;;;18.50;47.20;;;;;;10327345;28;875;-71
2023/04/08 14:11:55;;;;;;;;;;;18.50;47.10;;;;;;10327763;28;958;-71
2023/04/08 14:16:51;;;;;;;;;;;18.50;47.30;;;;;;10327634;28;766;-71
2023/04/08 14:21:46;;;;;;;;;;;18.50;47.20;;;;;;10327922;28;1967;-71
2023/04/08 14:26:41;;;;;;;;;;;18.60;47.10;;;;;;10327390;28;919;-71
2023/04/08 14:31:38;;;;;;;;;;;18.50;47.20;;;;;;10326953;28;1050;-71
2023/04/08 14:36:33;;;;;;;;;;;18.50;47.10;;;;;;10327449;28;919;-71
2023/04/08 14:41:29;;;;;;;;;;;18.50;47.00;;;;;;10326587;28;910;-71
2023/04/08 14:46:24;;;;;;;;;;;18.50;47.00;;;;;;10326393;28;1985;-71
2023/04/08 14:51:19;;;;;;;;;;;18.60;47.10;;;;;;10325879;28;1199;-71
2023/04/08 14:56:15;;;;;;;;;;;18.60;47.10;;;;;;10326367;28;1165;-71
2023/04/08 15:01:10;;;;;;;;;;;18.60;47.10;;;;;;10325993;28;935;-71
2023/04/08 15:06:06;;;;;;;;;;;18.50;47.10;;;;;;10324891;28;1985;-71
2023/04/08 15:11:01;;;;;;;;;;;18.60;47.10;;;;;;10325837;28;917;-71
2023/04/08 15:15:56;;;;;;;;;;;18.60;47.10;;;;;;10326908;28;876;-71
2023/04/08 15:20:52;;;;;;;;;;;18.50;47.10;;;;;;10326224;28;813;-71
2023/04/08 15:25:47;;;;;;;;;;;18.50;47.10;;;;;;10325495;28;1883;-71
2023/04/08 15:30:43;;;;;;;;;;;18.50;47.00;;;;;;10325362;28;964;-71
2023/04/08 15:35:38;;;;;;;;;;;18.60;47.00;;;;;;10325336;28;783;-71
2023/04/08 15:40:33;;;;;;;;;;;18.60;47.10;;;;;;10325191;28;881;-72
2023/04/08 15:45:29;;;;;;;;;;;18.50;47.00;;;;;;10325049;28;1902;-77
2023/04/08 15:50:24;;;;;;;;;;;18.50;47.00;;;;;;10325597;28;900;-82
2023/04/08 15:55:20;;;;;;;;;;;18.50;47.10;;;;;;10325109;28;1159;-82
2023/04/08 16:00:15;;;;;;;;;;;18.40;47.00;;;;;;10325443;28;841;-82
2023/04/08 16:05:12;;;;;;;;;;;18.40;47.00;;;;;;10324059;28;1883;-82
2023/04/08 16:10:07;;;;;;;;;;;18.40;47.00;;;;;;10324609;28;755;-82
2023/04/08 16:15:02;;;;;;;;;;;18.40;47.00;;;;;;10326870;28;909;-82
2023/04/08 16:19:58;;;;;;;;;;;18.30;47.00;;;;;;10332230;28;905;-72
2023/04/08 16:24:54;;;;;;;;;;;18.40;47.00;;;;;;10331932;28;1905;-72
2023/04/08 16:29:49;;;;;;;;;;;18.50;47.20;;;;;;10332300;28;882;-72
2023/04/08 16:34:45;;;;;;;;;;;18.50;47.30;;;;;;10331798;28;779;-72
2023/04/08 16:39:41;;;;;;;;;;;18.50;47.40;;;;;;10331963;28;876;-72
2023/04/08 16:44:36;;;;;;;;;;;18.50;47.50;;;;;;10331751;28;1902;-71
2023/04/08 16:49:31;;;;;;;;;;;18.50;47.50;;;;;;10331696;28;844;-71
2023/04/08 16:54:27;;;;;;;;;;;18.60;47.50;;;;;;10330836;28;1140;-71
2023/04/08 16:59:22;;;;;;;;;;;18.60;47.70;;;;;;10331559;28;885;-72
2023/04/08 17:04:18;;;;;;;;;;;18.50;47.70;;;;;;10330385;28;1967;-72
2023/04/08 17:09:13;;;;;;;;;;;18.50;47.80;;;;;;10330940;28;844;-73
2023/04/08 17:14:08;;;;;;;;;;;18.60;47.90;;;;;;10330217;28;958;-73
2023/04/08 17:19:04;;;;;;;;;;;18.60;47.80;;;;;;10329967;28;879;-72
2023/04/08 17:23:59;;;;;;;;;;;18.50;47.70;;;;;;10330350;28;1965;-72
2023/04/08 17:28:55;;;;;;;;;;;18.50;47.70;;;;;;10329208;28;963;-72
2023/04/08 17:33:50;;;;;;;;;;;18.50;47.70;;;;;;10329335;28;859;-72
2023/04/08 17:38:48;;;;;;;;;;;18.50;47.60;;;;;;10329265;28;765;-72
2023/04/08 17:43:44;;;;;;;;;;;18.50;47.50;;;;;;10329556;28;1910;-72
2023/04/08 17:48:40;;;;;;;;;;;18.50;47.50;;;;;;10328794;28;850;-72
2023/04/08 17:53:36;;;;;;;;;;;18.50;47.40;;;;;;10329192;28;842;-72
2023/04/08 17:58:32;;;;;;;;;;;18.50;47.30;;;;;;10329536;28;1591;-72
2023/04/08 18:03:27;;;;;;;;;;;18.50;47.40;;;;;;10328160;28;1914;-72
2023/04/08 18:08:22;;;;;;;;;;;18.50;47.30;;;;;;10328544;28;846;-72
2023/04/08 18:13:18;;;;;;;;;;;18.60;47.40;;;;;;10327102;28;857;-72
2023/04/08 18:18:18;;;;;;;;;;;18.50;47.40;;;;;;10327560;28;902;-72
2023/04/08 18:23:13;;;;;;;;;;;18.60;47.40;;;;;;10327239;28;1907;-72
2023/04/08 18:28:09;;;;;;;;;;;18.50;47.30;;;;;;10327738;28;1063;-72
2023/04/08 18:33:05;;;;;;;;;;;18.60;47.40;;;;;;10326448;28;945;-72
2023/04/08 18:38:00;;;;;;;;;;;18.60;47.40;;;;;;10326606;28;965;-72
2023/04/08 18:43:00;;;;;;;;;;;18.60;47.30;;;;;;10327145;28;1902;-72
2023/04/08 18:47:56;;;;;;;;;;;18.50;47.30;;;;;;10326472;28;846;-72
2023/04/08 18:52:51;;;;;;;;;;;18.60;47.40;;;;;;10326243;28;894;-72
2023/04/08 18:57:47;;;;;;;;;;;18.60;47.30;;;;;;10326804;28;1314;-72
2023/04/08 19:02:43;;;;;;;;;;;18.60;47.30;;;;;;10325389;28;1922;-72
2023/04/08 19:07:38;;;;;;;;;;;18.60;47.30;;;;;;10325917;28;917;-72
2023/04/08 19:12:33;;;;;;;;;;;18.60;47.20;;;;;;10326450;28;867;-72
2023/04/08 19:17:29;;;;;;;;;;;18.70;47.30;;;;;;10326521;28;865;-72
2023/04/08 19:22:24;;;;;;;;;;;18.60;47.30;;;;;;10326252;28;1909;-72
2023/04/08 19:27:20;;;;;;;;;;;18.60;47.30;;;;;;10325428;28;890;-72
2023/04/08 19:32:15;;;;;;;;;;;18.60;47.30;;;;;;10326013;28;813;-72
2023/04/08 19:37:11;;;;;;;;;;;18.70;47.20;;;;;;10325480;28;876;-72
2023/04/08 19:42:06;;;;;;;;;;;18.60;47.30;;;;;;10325124;28;1902;-72
2023/04/08 19:47:02;;;;;;;;;;;18.60;47.20;;;;;;10325697;28;895;-72
2023/04/08 19:51:58;;;;;;;;;;;18.60;47.20;;;;;;10331884;28;838;-72
2023/04/08 19:56:53;;;;;;;;;;;18.60;47.30;;;;;;10332878;28;1223;-72
2023/04/08 20:01:48;;;;;;;;;;;18.60;47.30;;;;;;10333547;28;834;-72
2023/04/08 20:06:44;;;;;;;;;;;18.50;47.30;;;;;;10332735;28;1914;-72
2023/04/08 20:11:40;;;;;;;;;;;18.50;47.30;;;;;;10332792;28;841;-72
2023/04/08 20:16:35;;;;;;;;;;;18.50;47.30;;;;;;10332276;28;985;-72
2023/04/08 20:21:31;;;;;;;;;;;18.50;47.30;;;;;;10332162;28;788;-72
2023/04/08 20:26:26;;;;;;;;;;;18.50;47.30;;;;;;10331244;28;1902;-72
2023/04/08 20:31:22;;;;;;;;;;;18.50;47.30;;;;;;10331743;28;966;-72
2023/04/08 20:36:17;;;;;;;;;;;18.50;47.30;;;;;;10331742;28;802;-72
2023/04/08 20:41:13;;;;;;;;;;;18.40;47.30;;;;;;10331491;28;763;-72
2023/04/08 20:46:08;;;;;;;;;;;18.50;47.30;;;;;;10331168;28;2016;-72
2023/04/08 20:51:04;;;;;;;;;;;18.40;47.10;;;;;;10331112;28;756;-72
2023/04/08 20:56:00;;;;;;;;;;;18.50;47.10;;;;;;10330921;28;1264;-72
2023/04/08 21:00:55;;;;;;;;;;;18.40;47.00;;;;;;10330044;28;1021;-77
2023/04/08 21:05:51;;;;;;;;;;;18.30;47.10;;;;;;10329922;28;1975;-77
2023/04/08 21:10:46;;;;;;;;;;;18.30;47.20;;;;;;10330977;28;843;-77
2023/04/08 21:15:42;;;;;;;;;;;18.30;47.20;;;;;;10331054;28;815;-77
2023/04/08 21:20:37;;;;;;;;;;;18.30;47.20;;;;;;10330626;28;782;-77
2023/04/08 21:25:33;;;;;;;;;;;18.30;47.20;;;;;;10330346;28;1967;-77
2023/04/08 21:30:28;;;;;;;;;;;18.20;47.10;;;;;;10330167;28;758;-77
2023/04/08 21:35:23;;;;;;;;;;;18.30;47.20;;;;;;10330002;28;961;-77
2023/04/08 21:40:19;;;;;;;;;;;18.30;47.10;;;;;;10329207;28;1582;-77
2023/04/08 21:45:15;;;;;;;;;;;18.30;47.10;;;;;;10328918;28;1889;-77
2023/04/08 21:50:11;;;;;;;;;;;18.20;47.10;;;;;;10329366;28;867;-78
2023/04/08 21:55:07;;;;;;;;;;;18.20;47.10;;;;;;10328409;28;1560;-77
2023/04/08 22:00:06;;;;;;;;;;;18.20;47.10;;;;;;10328458;28;806;-77
2023/04/08 22:05:02;;;;;;;;;;;18.20;47.00;;;;;;10328154;28;1971;-77
2023/04/08 22:09:58;;;;;;;;;;;18.20;47.00;;;;;;10328648;28;860;-77
2023/04/08 22:14:53;;;;;;;;;;;18.20;47.00;;;;;;10327278;28;826;-77
2023/04/08 22:19:49;;;;;;;;;;;18.20;46.90;;;;;;10328178;28;924;-77
2023/04/08 22:24:44;;;;;;;;;;;18.20;47.00;;;;;;10326669;28;1959;-77
2023/04/08 22:29:40;;;;;;;;;;;18.20;47.00;;;;;;10327770;28;867;-77
2023/04/08 22:34:35;;;;;;;;;;;18.20;46.90;;;;;;10327035;28;873;-77
2023/04/08 22:39:30;;;;;;;;;;;18.20;46.90;;;;;;10326867;28;763;-77
2023/04/08 22:44:26;;;;;;;;;;;18.20;46.90;;;;;;10327294;28;1961;-77
2023/04/08 22:49:21;;;;;;;;;;;18.20;46.90;;;;;;10326519;28;909;-77
2023/04/08 22:54:17;;;;;;;;;;;18.20;46.90;;;;;;10326317;28;1144;-78
2023/04/08 22:59:12;;;;;;;;;;;18.20;46.90;;;;;;10326180;28;982;-77
2023/04/08 23:04:07;;;;;;;;;;;18.20;46.90;;;;;;10326163;28;1886;-77
2023/04/08 23:09:03;;;;;;;;;;;18.20;46.70;;;;;;10325978;28;766;-77
2023/04/08 23:13:58;;;;;;;;;;;18.20;46.80;;;;;;10325767;28;885;-77
2023/04/08 23:18:53;;;;;;;;;;;18.20;46.70;;;;;;10326945;28;770;-77
2023/04/08 23:23:49;;;;;;;;;;;18.20;46.80;;;;;;10324707;28;1961;-77
2023/04/08 23:28:44;;;;;;;;;;;18.20;46.70;;;;;;10325511;28;896;-77
2023/04/08 23:33:40;;;;;;;;;;;18.20;46.70;;;;;;10326012;28;841;-77
2023/04/08 23:38:38;;;;;;;;;;;18.20;46.80;;;;;;10325837;28;843;-77
2023/04/08 23:43:34;;;;;;;;;;;18.20;46.80;;;;;;10325127;28;1958;-77
2023/04/08 23:48:29;;;;;;;;;;;18.20;46.80;;;;;;10325160;28;778;-77
2023/04/08 23:53:24;;;;;;;;;;;18.20;46.90;;;;;;10325036;28;850;-77
2023/04/08 23:58:20;;;;;;;;;;;18.20;46.70;;;;;;10324922;28;1530;-77
